createdAt,value
2023-05-15T00:02:07.352Z,4.50
2023-05-15T00:05:09.498Z,4.67
2023-05-15T00:08:11.536Z,4.53
2023-05-15T00:11:13.537Z,3.83
2023-05-15T00:14:15.394Z,4.40
2023-05-15T00:17:17.301Z,4.37
2023-05-15T00:20:19.219Z,4.57
2023-05-15T00:23:21.175Z,6.47
2023-05-15T00:26:23.505Z,4.30
2023-05-15T00:29:25.358Z,5.15
2023-05-15T00:32:27.366Z,4.68
2023-05-15T00:35:29.340Z,4.65
2023-05-15T00:38:33.781Z,3.97
2023-05-15T00:41:37.013Z,4.50
2023-05-15T00:44:41.590Z,3.75
2023-05-15T00:47:43.983Z,5.55
2023-05-15T00:50:45.930Z,5.68
2023-05-15T00:53:47.913Z,4.72
2023-05-15T00:56:51.624Z,5.05
2023-05-15T00:59:56.873Z,9.63
2023-05-15T01:03:00.072Z,5.63
2023-05-15T01:09:05.650Z,5.07
2023-05-15T01:12:09.885Z,4.07
2023-05-15T01:15:11.876Z,4.38
2023-05-15T01:18:13.774Z,5.33
2023-05-15T01:21:57.841Z,6.00
2023-05-15T01:25:37.100Z,4.43
2023-05-15T01:28:46.195Z,4.95
2023-05-15T01:31:57.219Z,4.00
2023-05-15T01:35:27.661Z,4.50
2023-05-15T01:38:39.993Z,4.50
2023-05-15T01:41:43.140Z,4.10
2023-05-15T01:45:06.017Z,5.50
2023-05-15T01:48:09.271Z,3.97
2023-05-15T01:51:13.725Z,4.22
2023-05-15T01:54:18.492Z,5.07
2023-05-15T01:57:25.165Z,5.03
2023-05-15T02:00:27.353Z,3.45
2023-05-15T02:03:34.620Z,3.90
2023-05-15T02:06:37.457Z,3.58
2023-05-15T02:09:40.224Z,4.70
2023-05-15T02:12:42.873Z,4.78
2023-05-15T02:15:44.797Z,4.47
2023-05-15T02:18:49.624Z,5.30
2023-05-15T02:24:53.487Z,6.65
2023-05-15T02:28:00.164Z,5.97
2023-05-15T02:31:07.661Z,4.38
2023-05-15T02:34:32.749Z,4.70
2023-05-15T02:37:38.299Z,4.63
2023-05-15T02:40:40.902Z,4.13
2023-05-15T02:43:44.487Z,3.78
2023-05-15T02:46:48.310Z,4.85
2023-05-15T02:49:52.053Z,4.47
2023-05-15T02:53:05.184Z,5.55
2023-05-15T02:59:09.271Z,4.45
2023-05-15T03:02:11.218Z,4.23
2023-05-15T03:05:13.166Z,4.10
2023-05-15T03:08:15.227Z,3.50
2023-05-15T03:11:19.326Z,4.03
2023-05-15T03:14:21.219Z,4.05
2023-05-15T03:17:23.105Z,4.10
2023-05-15T03:20:25.343Z,4.07
2023-05-15T03:23:27.263Z,3.55
2023-05-15T03:26:29.165Z,4.10
2023-05-15T03:29:31.234Z,3.40
2023-05-15T03:32:33.361Z,3.73
2023-05-15T03:35:36.218Z,4.43
2023-05-15T03:41:40.128Z,4.03
2023-05-15T03:44:42.005Z,3.60
2023-05-15T03:47:44.020Z,4.23
2023-05-15T03:50:46.283Z,4.13
2023-05-15T03:53:48.216Z,4.70
2023-05-15T03:56:50.167Z,4.83
2023-05-15T03:59:52.011Z,3.43
2023-05-15T04:02:53.970Z,6.05
2023-05-15T04:05:55.941Z,3.28
2023-05-15T04:08:57.807Z,3.97
2023-05-15T04:11:59.685Z,4.00
2023-05-15T04:15:18.211Z,3.40
2023-05-15T04:18:20.103Z,3.40
2023-05-15T04:21:21.977Z,4.67
2023-05-15T04:24:23.791Z,3.10
2023-05-15T04:27:26.829Z,3.53
2023-05-15T04:30:28.725Z,3.00
2023-05-15T04:33:30.845Z,3.03
2023-05-15T04:36:32.786Z,3.47
2023-05-15T04:39:34.674Z,2.65
2023-05-15T04:42:39.121Z,1.98
2023-05-15T04:45:41.643Z,4.20
2023-05-15T04:48:43.506Z,2.47
2023-05-15T04:51:45.467Z,5.57
2023-05-15T04:54:49.694Z,2.60
2023-05-15T04:57:51.681Z,3.55
2023-05-15T05:00:53.887Z,2.90
2023-05-15T05:03:55.930Z,2.15
2023-05-15T05:06:57.836Z,2.92
2023-05-15T05:09:59.874Z,3.20
2023-05-15T05:13:01.734Z,2.10
2023-05-15T05:16:03.828Z,2.65
2023-05-15T05:19:06.730Z,2.72
2023-05-15T05:22:08.889Z,2.55
2023-05-15T05:25:11.001Z,1.60
2023-05-15T05:28:12.835Z,1.67
2023-05-15T05:31:15.118Z,3.85
2023-05-15T05:34:17.228Z,1.95
2023-05-15T05:37:19.153Z,1.75
2023-05-15T05:40:21.026Z,1.73
2023-05-15T05:43:22.927Z,4.03
2023-05-15T05:46:24.852Z,1.85
2023-05-15T05:49:26.809Z,1.80
2023-05-15T05:52:29.466Z,1.95
2023-05-15T05:55:31.403Z,1.95
2023-05-15T05:58:33.497Z,2.20
2023-05-15T06:01:35.532Z,2.85
2023-05-15T06:04:37.420Z,2.30
2023-05-15T06:07:39.562Z,1.88
2023-05-15T06:10:42.442Z,2.03
2023-05-15T06:13:44.511Z,2.50
2023-05-15T06:16:46.428Z,2.60
2023-05-15T06:19:48.452Z,2.33
2023-05-15T06:22:50.398Z,2.35
2023-05-15T06:25:52.454Z,2.70
2023-05-15T06:28:54.353Z,2.17
2023-05-15T06:31:56.408Z,2.22
2023-05-15T06:34:58.393Z,1.73
2023-05-15T06:38:00.316Z,2.05
2023-05-15T06:41:02.255Z,2.00
2023-05-15T06:44:04.762Z,2.47
2023-05-15T06:47:07.122Z,1.45
2023-05-15T06:50:09.718Z,2.38
2023-05-15T06:53:13.709Z,2.58
2023-05-15T06:56:16.383Z,2.17
2023-05-15T06:59:18.363Z,2.60
2023-05-15T07:02:20.365Z,3.03
2023-05-15T07:05:22.316Z,1.95
2023-05-15T07:08:24.373Z,2.67
2023-05-15T07:11:27.082Z,1.90
2023-05-15T07:14:29.027Z,3.05
2023-05-15T07:17:32.412Z,2.70
2023-05-15T07:20:35.169Z,2.58
2023-05-15T07:23:37.298Z,2.50
2023-05-15T07:26:50.273Z,2.33
2023-05-15T07:29:59.214Z,1.73
2023-05-15T07:33:01.314Z,2.28
2023-05-15T07:36:03.307Z,2.97
2023-05-15T07:39:05.182Z,2.05
2023-05-15T07:42:07.156Z,3.08
2023-05-15T07:45:09.522Z,2.85
2023-05-15T07:48:16.579Z,2.95
2023-05-15T07:51:18.470Z,2.50
2023-05-15T07:54:20.922Z,3.17
2023-05-15T07:57:23.246Z,2.45
2023-05-15T08:00:25.193Z,2.13
2023-05-15T08:06:29.061Z,2.15
2023-05-15T08:09:30.907Z,1.40
2023-05-15T08:12:33.130Z,2.17
2023-05-15T08:15:35.089Z,2.67
2023-05-15T08:21:39.444Z,2.50
2023-05-15T08:24:42.035Z,2.42
2023-05-15T08:27:43.992Z,1.70
2023-05-15T08:33:47.910Z,2.47
2023-05-15T08:36:49.825Z,2.47
2023-05-15T08:42:55.700Z,4.45
2023-05-15T08:45:58.314Z,2.10
2023-05-15T08:49:11.636Z,4.05
2023-05-15T08:52:13.833Z,2.72
2023-05-15T08:55:16.990Z,1.88
2023-05-15T08:58:21.650Z,2.67
2023-05-15T09:01:24.242Z,1.77
2023-05-15T09:04:26.258Z,1.90
2023-05-15T09:07:30.416Z,3.40
2023-05-15T09:10:33.785Z,2.30
2023-05-15T09:13:35.751Z,2.30
2023-05-15T09:19:40.592Z,2.95
2023-05-15T09:22:42.516Z,2.75
2023-05-15T09:29:02.832Z,2.45
2023-05-15T09:32:10.097Z,3.35
2023-05-15T09:35:31.063Z,2.85
2023-05-15T09:38:35.089Z,2.08
2023-05-15T09:41:43.887Z,2.20
2023-05-15T09:44:46.497Z,2.22
2023-05-15T09:47:48.686Z,2.05
2023-05-15T09:50:50.824Z,2.20
2023-05-15T09:53:54.312Z,2.28
2023-05-15T09:56:57.524Z,2.15
2023-05-15T10:00:10.397Z,1.92
2023-05-15T10:03:14.621Z,2.92
2023-05-15T10:06:19.099Z,2.15
2023-05-15T10:09:22.199Z,1.77
2023-05-15T10:12:27.960Z,1.80
2023-05-15T10:15:30.429Z,1.90
2023-05-15T10:18:36.057Z,1.73
2023-05-15T10:21:40.259Z,3.15
2023-05-15T10:24:45.062Z,2.17
2023-05-15T10:27:48.172Z,1.85
2023-05-15T10:30:50.782Z,2.55
2023-05-15T10:33:55.411Z,2.70
2023-05-15T10:36:57.860Z,2.53
2023-05-15T10:40:01.674Z,1.52
2023-05-15T10:43:04.218Z,2.30
2023-05-15T10:46:06.888Z,2.97
2023-05-15T10:49:09.044Z,1.80
2023-05-15T10:52:10.999Z,2.20
2023-05-15T10:55:18.077Z,1.95
2023-05-15T10:58:24.136Z,2.28
2023-05-15T11:01:32.000Z,2.90
2023-05-15T11:04:35.241Z,2.03
2023-05-15T11:07:37.316Z,2.38
2023-05-15T11:10:39.620Z,1.45
2023-05-15T11:14:20.158Z,2.17
2023-05-15T11:17:24.874Z,2.03
2023-05-15T11:20:49.789Z,2.10
2023-05-15T11:24:04.394Z,2.75
2023-05-15T11:27:06.298Z,2.08
2023-05-15T11:30:08.611Z,3.25
2023-05-15T11:33:11.534Z,2.55
2023-05-15T11:36:15.950Z,2.22
2023-05-15T11:39:17.830Z,2.80
2023-05-15T11:42:19.670Z,1.70
2023-05-15T11:45:22.808Z,2.72
2023-05-15T11:48:27.867Z,3.78
2023-05-15T11:51:30.286Z,1.90
2023-05-15T11:54:32.513Z,1.85
2023-05-15T11:57:34.316Z,2.33
2023-05-15T12:03:38.502Z,1.77
2023-05-15T12:06:41.549Z,2.83
2023-05-15T12:09:44.175Z,2.45
2023-05-15T12:12:46.489Z,1.88
2023-05-15T12:15:48.570Z,3.65
2023-05-15T12:18:50.613Z,2.47
2023-05-15T12:21:52.543Z,1.55
2023-05-15T12:24:58.884Z,2.65
2023-05-15T12:28:03.121Z,2.58
2023-05-15T12:31:05.450Z,2.88
2023-05-15T12:34:07.564Z,2.53
2023-05-15T12:37:15.203Z,1.25
2023-05-15T12:40:21.395Z,1.67
2023-05-15T12:43:26.618Z,1.88
2023-05-15T12:46:32.168Z,2.20
2023-05-15T12:49:36.907Z,2.38
2023-05-15T12:52:38.779Z,2.22
2023-05-15T12:55:41.004Z,2.10
2023-05-15T12:58:43.122Z,2.30
2023-05-15T13:01:45.381Z,5.15
2023-05-15T13:04:47.473Z,2.95
2023-05-15T13:07:49.537Z,2.25
2023-05-15T13:10:59.275Z,2.42
2023-05-15T13:14:01.335Z,2.70
2023-05-15T13:17:03.527Z,3.53
2023-05-15T13:20:06.520Z,2.15
2023-05-15T13:23:10.604Z,1.80
2023-05-15T13:26:12.482Z,1.40
2023-05-15T13:29:14.406Z,3.28
2023-05-15T13:32:16.332Z,2.00
2023-05-15T13:35:18.464Z,2.67
2023-05-15T13:38:20.923Z,4.93
2023-05-15T13:41:22.903Z,4.90
2023-05-15T13:44:24.827Z,3.33
2023-05-15T13:47:27.032Z,3.00
2023-05-15T13:50:29.021Z,2.72
2023-05-15T13:53:30.896Z,1.55
2023-05-15T13:59:34.535Z,3.15
2023-05-15T14:05:38.451Z,3.58
2023-05-15T14:08:40.411Z,2.10
2023-05-15T14:11:42.318Z,3.08
2023-05-15T14:17:48.893Z,2.22
2023-05-15T14:20:50.895Z,2.30
2023-05-15T14:23:52.754Z,3.03
2023-05-15T14:29:59.448Z,2.30
2023-05-15T14:33:01.431Z,2.58
2023-05-15T14:36:04.684Z,2.45
2023-05-15T14:39:06.690Z,2.60
2023-05-15T14:42:08.619Z,2.15
2023-05-15T14:48:12.570Z,2.20
2023-05-15T14:51:14.490Z,1.88
2023-05-15T14:57:20.469Z,2.15
2023-05-15T15:00:22.443Z,2.50
2023-05-15T15:03:25.768Z,3.22
2023-05-15T15:06:29.501Z,2.95
2023-05-15T15:12:34.276Z,2.03
2023-05-15T15:15:37.403Z,2.08
2023-05-15T15:18:39.399Z,1.80
2023-05-15T15:21:41.312Z,2.90
2023-05-15T15:27:46.432Z,2.17
2023-05-15T15:30:48.357Z,1.55
2023-05-15T15:36:52.078Z,1.75
2023-05-15T15:42:55.765Z,2.42
2023-05-15T15:49:00.346Z,3.40
2023-05-15T15:52:02.374Z,2.35
2023-05-15T15:58:06.288Z,3.90
2023-05-15T16:04:10.229Z,1.95
2023-05-15T16:07:12.448Z,2.05
2023-05-15T16:10:14.570Z,2.42
2023-05-15T16:13:16.602Z,1.58
2023-05-15T16:19:21.361Z,2.28
2023-05-15T16:22:23.206Z,1.95
2023-05-15T16:25:25.273Z,1.85
2023-05-15T16:31:29.082Z,1.83
2023-05-15T16:34:31.095Z,1.40
2023-05-15T16:37:32.913Z,2.95
2023-05-15T16:40:34.744Z,2.08
2023-05-15T16:43:38.259Z,2.17
2023-05-15T16:46:40.225Z,1.45
2023-05-15T16:49:44.273Z,3.20
2023-05-15T16:52:47.815Z,1.73
2023-05-15T16:55:49.838Z,2.00
2023-05-15T16:58:53.667Z,1.75
2023-05-15T17:01:55.577Z,2.28
2023-05-15T17:04:57.490Z,2.40
2023-05-15T17:08:00.329Z,2.53
2023-05-15T17:11:02.181Z,4.82
2023-05-15T17:14:04.115Z,4.88
2023-05-15T17:17:06.066Z,1.80
2023-05-15T17:20:08.815Z,2.60
2023-05-15T17:23:10.739Z,1.92
2023-05-15T17:26:12.642Z,2.10
2023-05-15T17:29:14.563Z,4.25
2023-05-15T17:32:17.516Z,4.50
2023-05-15T17:35:19.601Z,6.78
2023-05-15T17:38:21.488Z,11.50
2023-05-15T17:41:23.410Z,8.63
2023-05-15T17:44:28.113Z,8.95
2023-05-15T17:47:30.086Z,6.03
2023-05-15T17:50:32.103Z,6.95
2023-05-15T17:53:34.070Z,6.47
2023-05-15T17:56:36.051Z,6.18
2023-05-15T17:59:38.016Z,4.45
2023-05-15T18:02:39.937Z,4.68
2023-05-15T18:05:41.807Z,6.32
2023-05-15T18:08:47.617Z,5.18
2023-05-15T18:11:49.530Z,4.47
2023-05-15T18:14:52.868Z,6.20
2023-05-15T18:17:54.833Z,4.93
2023-05-15T18:20:56.842Z,3.85
2023-05-15T18:23:58.764Z,5.65
2023-05-15T18:27:01.325Z,3.55
2023-05-15T18:30:03.310Z,2.47
2023-05-15T18:33:05.295Z,3.35
2023-05-15T18:36:08.351Z,3.00
2023-05-15T18:39:10.268Z,2.90
2023-05-15T18:42:12.208Z,5.25
2023-05-15T18:45:14.099Z,4.07
2023-05-15T18:48:16.018Z,3.75
2023-05-15T18:51:19.283Z,5.38
2023-05-15T18:54:21.180Z,2.67
2023-05-15T18:57:23.056Z,3.33
2023-05-15T19:00:37.069Z,3.00
2023-05-15T19:03:39.552Z,3.90
2023-05-15T19:06:44.521Z,4.35
2023-05-15T19:09:46.490Z,3.50
2023-05-15T19:12:48.443Z,3.50
2023-05-15T19:15:53.936Z,4.05
2023-05-15T19:18:56.019Z,3.47
2023-05-15T19:21:58.137Z,4.05
2023-05-15T19:25:00.177Z,5.45
2023-05-15T19:28:02.065Z,3.63
2023-05-15T19:31:11.774Z,3.65
2023-05-15T19:34:19.213Z,2.65
2023-05-15T19:37:21.142Z,4.35
2023-05-15T19:40:22.998Z,2.95
2023-05-15T19:43:24.905Z,2.88
2023-05-15T19:46:26.780Z,5.18
2023-05-15T19:49:28.960Z,2.92
2023-05-15T19:52:30.824Z,2.38
2023-05-15T19:55:32.905Z,3.83
2023-05-15T19:58:34.850Z,2.40
2023-05-15T20:01:36.794Z,2.55
2023-05-15T20:04:38.792Z,4.13
2023-05-15T20:07:41.118Z,1.52
2023-05-15T20:10:43.109Z,3.03
2023-05-15T20:13:45.649Z,3.03
2023-05-15T20:16:47.561Z,2.03
2023-05-15T20:19:49.654Z,3.10
2023-05-15T20:22:51.736Z,2.30
2023-05-15T20:25:54.618Z,2.60
2023-05-15T20:28:56.593Z,2.38
2023-05-15T20:31:59.607Z,3.92
2023-05-15T20:35:01.750Z,2.50
2023-05-15T20:38:04.461Z,2.90
2023-05-15T20:41:06.933Z,2.63
2023-05-15T20:44:08.873Z,3.80
2023-05-15T20:47:10.864Z,2.83
2023-05-15T20:50:12.819Z,4.22
2023-05-15T20:53:14.705Z,2.58
2023-05-15T20:56:16.640Z,2.73
2023-05-15T20:59:18.473Z,3.22
2023-05-15T21:02:20.340Z,4.03
2023-05-15T21:05:22.377Z,3.65
2023-05-15T21:08:24.343Z,2.70
2023-05-15T21:11:26.357Z,3.38
2023-05-15T21:14:28.259Z,3.80
2023-05-15T21:17:30.490Z,4.30
2023-05-15T21:20:34.905Z,4.05
2023-05-15T21:23:37.191Z,4.75
2023-05-15T21:26:39.134Z,3.55
2023-05-15T21:29:41.049Z,2.65
2023-05-15T21:32:42.932Z,5.57
2023-05-15T21:35:45.456Z,2.87
2023-05-15T21:38:47.593Z,3.20
2023-05-15T21:41:51.287Z,3.22
2023-05-15T21:44:53.100Z,3.33
2023-05-15T21:47:55.067Z,3.70
2023-05-15T21:50:57.762Z,3.33
2023-05-15T21:53:59.661Z,4.03
2023-05-15T21:57:01.584Z,3.80
2023-05-15T22:00:06.918Z,3.17
2023-05-15T22:03:08.782Z,3.35
2023-05-15T22:06:11.007Z,3.87
2023-05-15T22:09:12.878Z,3.00
2023-05-15T22:12:14.754Z,3.97
2023-05-15T22:15:17.116Z,2.70
2023-05-15T22:18:19.067Z,2.55
2023-05-15T22:21:21.086Z,3.07
2023-05-15T22:24:23.126Z,3.65
2023-05-15T22:27:25.024Z,3.47
2023-05-15T22:30:27.141Z,3.73
2023-05-15T22:33:29.619Z,3.67
2023-05-15T22:36:32.140Z,3.20
2023-05-15T22:39:34.271Z,3.08
2023-05-15T22:42:36.312Z,4.18
2023-05-15T22:45:38.472Z,4.93
2023-05-15T22:48:41.506Z,5.05
2023-05-15T22:51:44.754Z,3.90
2023-05-15T22:54:46.690Z,3.90
2023-05-15T22:57:48.791Z,4.37
2023-05-15T23:00:50.934Z,3.70
2023-05-15T23:03:52.895Z,3.20
2023-05-15T23:06:55.825Z,2.93
2023-05-15T23:09:57.857Z,3.95
2023-05-15T23:12:59.638Z,5.00
2023-05-15T23:16:01.568Z,3.20
2023-05-15T23:19:04.239Z,3.53
2023-05-15T23:22:06.538Z,3.50
2023-05-15T23:25:08.935Z,4.15
2023-05-15T23:28:11.105Z,2.92
2023-05-15T23:31:14.130Z,4.45
2023-05-15T23:34:16.242Z,2.63
2023-05-15T23:37:18.488Z,5.23
2023-05-15T23:40:20.453Z,3.60
2023-05-15T23:43:22.451Z,3.80
2023-05-15T23:46:24.509Z,3.57
2023-05-15T23:49:26.540Z,3.20
2023-05-15T23:52:28.510Z,3.97
2023-05-15T23:55:30.439Z,5.63
2023-05-15T23:58:32.341Z,4.77
